createdAt,value
2019-02-23T00:01:49.131Z,5.47
2019-02-23T00:04:19.609Z,5.73
2019-02-23T00:06:50.137Z,7.00
2019-02-23T00:09:20.775Z,5.97
2019-02-23T00:11:51.302Z,6.30
2019-02-23T00:14:22.103Z,6.33
2019-02-23T00:16:53.651Z,4.33
2019-02-23T00:19:25.227Z,5.27
2019-02-23T00:21:55.894Z,5.97
2019-02-23T00:24:26.335Z,6.30
2019-02-23T00:26:56.796Z,4.93
2019-02-23T00:29:27.376Z,5.47
2019-02-23T00:31:58.060Z,6.23
2019-02-23T00:34:28.498Z,7.10
2019-02-23T00:36:59.105Z,4.60
2019-02-23T00:39:30.701Z,4.17
2019-02-23T00:42:01.236Z,6.23
2019-02-23T00:44:33.290Z,6.47
2019-02-23T00:47:03.899Z,5.03
2019-02-23T00:49:36.545Z,5.60
2019-02-23T00:52:06.466Z,4.30
2019-02-23T00:54:36.974Z,6.30
2019-02-23T00:57:07.419Z,6.60
2019-02-23T00:59:39.047Z,5.37
2019-02-23T01:02:09.536Z,4.87
2019-02-23T01:04:40.007Z,5.27
2019-02-23T01:07:10.627Z,5.37
2019-02-23T01:09:41.257Z,6.80
2019-02-23T01:12:11.626Z,6.10
2019-02-23T01:14:42.263Z,5.03
2019-02-23T01:17:12.756Z,5.87
2019-02-23T01:19:47.893Z,2.93
2019-02-23T01:22:15.534Z,4.67
2019-02-23T01:24:46.075Z,6.93
2019-02-23T01:27:16.586Z,5.23
2019-02-23T01:29:47.046Z,4.67
2019-02-23T01:32:17.938Z,6.00
2019-02-23T01:34:48.499Z,5.63
2019-02-23T01:37:19.109Z,7.07
2019-02-23T01:39:49.740Z,7.43
2019-02-23T01:42:20.342Z,6.03
2019-02-23T01:44:50.911Z,6.67
2019-02-23T01:47:21.442Z,6.63
2019-02-23T01:49:58.884Z,5.67
2019-02-23T01:52:24.215Z,3.40
2019-02-23T01:54:55.590Z,4.00
2019-02-23T01:57:26.026Z,4.53
2019-02-23T01:59:56.625Z,4.53
2019-02-23T02:02:27.191Z,6.63
2019-02-23T02:04:57.676Z,4.67
2019-02-23T02:07:28.290Z,3.00
2019-02-23T02:09:58.776Z,5.27
2019-02-23T02:12:29.473Z,5.23
2019-02-23T02:14:59.984Z,5.83
2019-02-23T02:17:30.634Z,6.17
2019-02-23T02:20:10.451Z,5.53
2019-02-23T02:22:34.375Z,4.90
2019-02-23T02:25:05.025Z,6.40
2019-02-23T02:27:35.735Z,6.03
2019-02-23T02:30:07.111Z,5.50
2019-02-23T02:32:37.901Z,6.20
2019-02-23T02:35:09.606Z,6.90
2019-02-23T02:37:40.133Z,5.40
2019-02-23T02:40:10.855Z,6.23
2019-02-23T02:42:41.470Z,6.63
2019-02-23T02:45:12.190Z,6.07
2019-02-23T02:47:42.666Z,5.77
2019-02-23T02:50:23.758Z,6.60
2019-02-23T02:52:45.438Z,6.27
2019-02-23T02:55:16.152Z,6.00
2019-02-23T02:57:46.793Z,6.20
2019-02-23T03:00:17.634Z,6.93
2019-02-23T03:02:48.231Z,7.07
2019-02-23T03:05:18.801Z,7.67
2019-02-23T03:07:49.420Z,7.10
2019-02-23T03:10:19.974Z,7.77
2019-02-23T03:12:50.510Z,5.37
2019-02-23T03:15:20.986Z,7.10
2019-02-23T03:17:51.419Z,6.87
2019-02-23T03:20:21.899Z,7.27
2019-02-23T03:22:52.529Z,6.57
2019-02-23T03:25:23.126Z,7.30
2019-02-23T03:27:53.725Z,6.33
2019-02-23T03:30:24.281Z,6.07
2019-02-23T03:32:54.821Z,6.93
2019-02-23T03:35:25.356Z,6.80
2019-02-23T03:37:56.160Z,7.63
2019-02-23T03:40:26.657Z,7.20
2019-02-23T03:42:57.233Z,6.40
2019-02-23T03:45:27.825Z,5.60
2019-02-23T03:47:58.295Z,6.73
2019-02-23T03:50:28.807Z,6.40
2019-02-23T03:52:59.291Z,6.10
2019-02-23T03:55:29.877Z,5.87
2019-02-23T03:58:00.367Z,6.40
2019-02-23T04:00:32.035Z,6.27
2019-02-23T04:03:02.620Z,6.97
2019-02-23T04:05:33.214Z,6.43
2019-02-23T04:08:04.232Z,6.27
2019-02-23T04:10:34.716Z,5.73
2019-02-23T04:13:05.424Z,6.90
2019-02-23T04:15:36.206Z,7.43
2019-02-23T04:18:06.710Z,6.43
2019-02-23T04:20:37.114Z,6.93
2019-02-23T04:23:07.711Z,7.37
2019-02-23T04:25:38.548Z,7.00
2019-02-23T04:28:09.024Z,7.87
2019-02-23T04:30:39.555Z,7.67
2019-02-23T04:33:10.024Z,6.87
2019-02-23T04:35:40.590Z,7.60
2019-02-23T04:38:11.219Z,7.57
2019-02-23T04:40:41.753Z,7.23
2019-02-23T04:43:12.274Z,7.33
2019-02-23T04:45:43.876Z,8.77
2019-02-23T04:48:14.763Z,7.70
2019-02-23T04:50:45.270Z,7.60
2019-02-23T04:53:15.940Z,8.27
2019-02-23T04:55:46.310Z,7.07
2019-02-23T04:58:16.968Z,7.40
2019-02-23T05:00:47.374Z,7.30
2019-02-23T05:03:17.880Z,7.20
2019-02-23T05:05:48.286Z,7.33
2019-02-23T05:08:19.774Z,7.63
2019-02-23T05:10:51.245Z,7.97
2019-02-23T05:13:21.693Z,7.50
2019-02-23T05:15:52.220Z,7.60
2019-02-23T05:18:22.756Z,7.07
2019-02-23T05:20:53.254Z,7.30
2019-02-23T05:23:23.709Z,6.97
2019-02-23T05:26:13.263Z,8.40
2019-02-23T05:28:43.740Z,7.90
2019-02-23T05:31:14.119Z,10.70
2019-02-23T05:33:48.566Z,9.57
2019-02-23T05:36:18.929Z,9.33
2019-02-23T05:38:49.516Z,9.03
2019-02-23T05:41:20.045Z,8.43
2019-02-23T05:43:50.545Z,9.03
2019-02-23T05:46:21.242Z,9.77
2019-02-23T05:48:51.739Z,9.83
2019-02-23T05:51:22.221Z,8.00
2019-02-23T05:53:53.904Z,9.70
2019-02-23T05:56:24.347Z,10.90
2019-02-23T05:58:54.873Z,11.63
2019-02-23T06:01:25.425Z,11.33
2019-02-23T06:03:56.036Z,10.07
2019-02-23T06:06:26.665Z,10.47
2019-02-23T06:08:57.278Z,10.67
2019-02-23T06:11:27.827Z,10.47
2019-02-23T06:13:58.250Z,10.40
2019-02-23T06:16:28.880Z,10.07
2019-02-23T06:18:59.406Z,11.07
2019-02-23T06:21:29.903Z,8.20
2019-02-23T06:24:00.398Z,8.30
2019-02-23T06:26:30.892Z,7.30
2019-02-23T06:29:01.401Z,8.77
2019-02-23T06:31:31.953Z,7.70
2019-02-23T06:34:12.487Z,10.03
2019-02-23T06:36:34.663Z,9.50
2019-02-23T06:39:06.324Z,8.20
2019-02-23T06:41:37.084Z,8.83
2019-02-23T06:44:07.708Z,10.57
2019-02-23T06:46:38.597Z,12.00
2019-02-23T06:49:09.104Z,13.53
2019-02-23T06:51:39.985Z,15.07
2019-02-23T06:54:10.561Z,10.87
2019-02-23T06:56:41.454Z,9.73
2019-02-23T06:59:12.113Z,10.70
2019-02-23T07:01:42.776Z,10.20
2019-02-23T07:04:13.307Z,8.53
2019-02-23T07:06:44.193Z,8.97
2019-02-23T07:09:14.949Z,8.93
2019-02-23T07:11:45.549Z,10.00
2019-02-23T07:14:16.479Z,10.53
2019-02-23T07:16:47.180Z,13.10
2019-02-23T07:19:17.872Z,11.07
2019-02-23T07:21:48.492Z,9.87
2019-02-23T07:24:20.431Z,9.40
2019-02-23T07:26:51.213Z,9.73
2019-02-23T07:29:21.828Z,10.93
2019-02-23T07:31:52.662Z,16.13
2019-02-23T07:34:23.413Z,9.30
2019-02-23T07:36:54.152Z,11.47
2019-02-23T07:39:25.054Z,11.23
2019-02-23T07:41:55.711Z,12.93
2019-02-23T07:44:26.403Z,11.80
2019-02-23T07:46:57.156Z,9.77
2019-02-23T07:49:27.927Z,10.53
2019-02-23T07:51:58.547Z,11.93
2019-02-23T07:54:29.146Z,10.47
2019-02-23T07:56:59.986Z,10.30
2019-02-23T07:59:30.917Z,10.53
2019-02-23T08:02:01.635Z,9.63
2019-02-23T08:04:32.491Z,10.20
2019-02-23T08:07:03.041Z,9.73
2019-02-23T08:09:33.563Z,9.27
2019-02-23T08:12:04.324Z,6.23
2019-02-23T08:14:36.020Z,5.13
2019-02-23T08:17:06.791Z,6.00
2019-02-23T08:19:37.749Z,6.13
2019-02-23T08:22:08.440Z,6.30
2019-02-23T08:24:39.385Z,6.30
2019-02-23T08:27:09.986Z,6.50
2019-02-23T08:29:40.633Z,5.67
2019-02-23T08:32:11.341Z,5.57
2019-02-23T08:34:41.871Z,6.57
2019-02-23T08:37:12.498Z,5.90
2019-02-23T08:39:43.141Z,6.13
2019-02-23T08:42:13.995Z,5.37
2019-02-23T08:44:44.571Z,5.50
2019-02-23T08:47:15.294Z,5.00
2019-02-23T08:49:46.084Z,5.00
2019-02-23T08:52:17.764Z,5.23
2019-02-23T08:54:48.436Z,4.93
2019-02-23T08:57:19.144Z,5.57
2019-02-23T08:59:49.851Z,5.70
2019-02-23T09:02:20.527Z,4.80
2019-02-23T09:04:51.212Z,5.93
2019-02-23T09:07:21.947Z,5.13
2019-02-23T09:09:52.692Z,5.20
2019-02-23T09:12:23.853Z,5.43
2019-02-23T09:14:54.972Z,6.03
2019-02-23T09:17:25.773Z,7.27
2019-02-23T09:19:56.702Z,7.17
2019-02-23T09:22:27.685Z,7.40
2019-02-23T09:24:58.495Z,7.57
2019-02-23T09:27:29.910Z,6.97
2019-02-23T09:30:00.616Z,7.37
2019-02-23T09:32:31.543Z,6.80
2019-02-23T09:35:02.270Z,6.27
2019-02-23T09:37:33.100Z,6.03
2019-02-23T09:40:04.057Z,5.77
2019-02-23T09:42:34.950Z,5.70
2019-02-23T09:45:06.621Z,6.07
2019-02-23T09:47:37.351Z,6.13
2019-02-23T09:50:08.176Z,6.10
2019-02-23T09:52:39.256Z,6.50
2019-02-23T09:55:10.281Z,4.70
2019-02-23T09:57:41.041Z,5.13
2019-02-23T10:00:12.285Z,4.80
2019-02-23T10:02:43.313Z,5.17
2019-02-23T10:05:15.169Z,5.90
2019-02-23T10:07:45.853Z,5.70
2019-02-23T10:10:16.963Z,5.50
2019-02-23T10:12:47.891Z,5.30
2019-02-23T10:15:18.709Z,6.13
2019-02-23T10:17:49.551Z,7.43
2019-02-23T10:20:20.281Z,7.40
2019-02-23T10:22:51.002Z,9.20
2019-02-23T10:25:22.022Z,8.93
2019-02-23T10:27:52.635Z,9.93
2019-02-23T10:30:23.357Z,9.93
2019-02-23T10:32:54.094Z,10.80
2019-02-23T10:35:24.808Z,10.17
2019-02-23T10:37:55.421Z,8.40
2019-02-23T10:40:26.054Z,7.83
2019-02-23T10:42:56.543Z,7.77
2019-02-23T10:45:27.279Z,8.47
2019-02-23T10:47:57.990Z,8.93
2019-02-23T10:50:29.025Z,7.00
2019-02-23T10:52:59.947Z,7.70
2019-02-23T10:55:30.704Z,7.13
2019-02-23T10:58:01.409Z,3.77
2019-02-23T11:00:32.206Z,7.50
2019-02-23T11:03:02.987Z,6.63
2019-02-23T11:05:33.837Z,6.73
2019-02-23T11:08:04.537Z,7.73
2019-02-23T11:10:35.243Z,6.77
2019-02-23T11:13:06.095Z,6.67
2019-02-23T11:15:37.192Z,5.63
2019-02-23T11:18:08.045Z,2.87
2019-02-23T11:20:38.768Z,5.20
2019-02-23T11:23:09.467Z,5.87
2019-02-23T11:25:40.181Z,5.80
2019-02-23T11:28:18.078Z,5.40
2019-02-23T11:30:43.698Z,5.53
2019-02-23T11:33:14.360Z,5.30
2019-02-23T11:35:45.293Z,5.30
2019-02-23T11:38:15.957Z,4.80
2019-02-23T11:40:46.883Z,5.00
2019-02-23T11:43:17.697Z,3.53
2019-02-23T11:45:48.410Z,4.83
2019-02-23T11:48:19.253Z,5.50
2019-02-23T11:50:49.990Z,4.87
2019-02-23T11:53:20.651Z,5.10
2019-02-23T11:55:51.353Z,4.30
2019-02-23T11:58:22.283Z,4.00
2019-02-23T12:00:53.016Z,5.00
2019-02-23T12:03:23.526Z,3.10
2019-02-23T12:05:57.876Z,3.73
2019-02-23T12:08:28.522Z,4.60
2019-02-23T12:10:59.173Z,4.63
2019-02-23T12:13:29.743Z,4.70
2019-02-23T12:16:00.608Z,11.37
2019-02-23T12:18:31.601Z,6.13
2019-02-23T12:21:02.191Z,4.50
2019-02-23T12:23:32.896Z,4.83
2019-02-23T12:26:04.575Z,4.83
2019-02-23T12:28:35.407Z,5.70
2019-02-23T12:31:06.046Z,6.03
2019-02-23T12:33:38.400Z,6.37
2019-02-23T12:36:09.333Z,5.40
2019-02-23T12:38:39.980Z,4.37
2019-02-23T12:41:10.702Z,4.77
2019-02-23T12:43:41.476Z,6.60
2019-02-23T12:46:12.141Z,6.90
2019-02-23T12:48:43.035Z,5.43
2019-02-23T12:51:15.160Z,19.57
2019-02-23T12:53:45.898Z,5.80
2019-02-23T12:56:16.566Z,7.00
2019-02-23T12:58:48.827Z,7.37
2019-02-23T13:01:19.765Z,6.17
2019-02-23T13:03:50.467Z,6.70
2019-02-23T13:06:21.326Z,6.20
2019-02-23T13:09:15.407Z,6.00
2019-02-23T13:12:06.246Z,6.57
2019-02-23T13:14:42.605Z,6.30
2019-02-23T13:17:30.106Z,6.87
2019-02-23T13:20:32.187Z,7.07
2019-02-23T13:23:42.367Z,6.70
2019-02-23T13:26:37.476Z,6.17
2019-02-23T13:29:36.523Z,6.83
2019-02-23T13:32:46.701Z,6.90
2019-02-23T13:35:34.323Z,6.87
2019-02-23T13:38:38.540Z,9.33
2019-02-23T13:41:17.252Z,7.47
2019-02-23T13:44:26.299Z,10.23
2019-02-23T13:47:26.694Z,5.67
2019-02-23T13:50:20.730Z,8.47
2019-02-23T13:53:29.821Z,6.20
2019-02-23T13:56:38.764Z,7.67
2019-02-23T13:59:47.695Z,7.90
2019-02-23T14:02:56.513Z,7.23
2019-02-23T14:05:41.429Z,7.63
2019-02-23T14:08:54.262Z,6.70
2019-02-23T14:11:39.602Z,6.87
2019-02-23T14:14:25.168Z,6.20
2019-02-23T14:17:27.853Z,6.63
2019-02-23T14:20:23.635Z,5.17
2019-02-23T14:23:22.001Z,5.57
2019-02-23T14:26:10.603Z,4.73
2019-02-23T14:29:04.348Z,4.93
2019-02-23T14:32:03.469Z,4.83
2019-02-23T14:35:00.922Z,15.37
2019-02-23T14:38:09.858Z,5.23
2019-02-23T14:41:02.745Z,5.33
2019-02-23T14:44:05.429Z,4.90
2019-02-23T14:47:14.459Z,7.40
2019-02-23T14:50:11.362Z,5.87
2019-02-23T14:53:20.309Z,7.40
2019-02-23T14:56:18.359Z,5.67
2019-02-23T14:59:27.450Z,5.67
2019-02-23T15:02:26.858Z,6.60
2019-02-23T15:05:19.781Z,7.07
2019-02-23T15:08:28.755Z,6.17
2019-02-23T15:11:37.641Z,5.60
2019-02-23T15:14:42.990Z,6.70
2019-02-23T15:17:37.386Z,7.17
2019-02-23T15:20:46.394Z,8.57
2019-02-23T15:23:46.173Z,6.43
2019-02-23T15:26:43.681Z,18.77
2019-02-23T15:29:52.657Z,6.40
2019-02-23T15:33:01.736Z,6.13
2019-02-23T15:36:10.619Z,12.17
2019-02-23T15:39:19.585Z,6.80
2019-02-23T15:42:28.773Z,6.90
2019-02-23T15:45:36.887Z,6.43
2019-02-23T15:48:31.446Z,7.13
2019-02-23T15:51:02.117Z,6.23
2019-02-23T15:53:32.903Z,6.30
2019-02-23T15:56:03.704Z,6.87
2019-02-23T15:58:34.388Z,6.77
2019-02-23T16:01:06.531Z,6.60
2019-02-23T16:03:36.988Z,6.63
2019-02-23T16:06:07.689Z,7.50
2019-02-23T16:08:38.613Z,8.03
2019-02-23T16:11:09.353Z,9.20
2019-02-23T16:13:40.243Z,9.33
2019-02-23T16:16:10.834Z,10.20
2019-02-23T16:18:41.429Z,11.23
2019-02-23T16:21:12.172Z,11.63
2019-02-23T16:23:42.980Z,12.53
2019-02-23T16:26:13.642Z,18.50
2019-02-23T16:28:44.466Z,19.37
2019-02-23T16:31:15.281Z,12.90
2019-02-23T16:33:46.263Z,13.33
2019-02-23T16:36:16.836Z,14.60
2019-02-23T16:38:47.344Z,20.57
2019-02-23T16:41:17.902Z,18.60
2019-02-23T16:43:48.854Z,45.83
2019-02-23T16:46:19.534Z,19.23
2019-02-23T16:48:50.310Z,14.40
2019-02-23T16:51:21.297Z,14.57
2019-02-23T16:53:51.972Z,13.57
2019-02-23T16:56:22.532Z,13.43
2019-02-23T16:58:53.193Z,14.73
2019-02-23T17:01:23.865Z,13.27
2019-02-23T17:03:54.663Z,13.30
2019-02-23T17:06:26.012Z,15.07
2019-02-23T17:08:57.050Z,14.27
2019-02-23T17:11:27.836Z,13.37
2019-02-23T17:14:01.601Z,15.97
2019-02-23T17:16:33.563Z,16.53
2019-02-23T17:19:04.301Z,14.77
2019-02-23T17:21:35.202Z,15.00
2019-02-23T17:24:06.372Z,13.87
2019-02-23T17:26:37.093Z,14.33
2019-02-23T17:29:08.458Z,13.87
2019-02-23T17:31:39.250Z,12.97
2019-02-23T17:34:10.076Z,14.43
2019-02-23T17:36:41.091Z,14.17
2019-02-23T17:39:12.115Z,14.50
2019-02-23T17:41:42.946Z,14.03
2019-02-23T17:44:13.649Z,12.57
2019-02-23T17:46:44.305Z,13.20
2019-02-23T17:49:15.066Z,12.40
2019-02-23T17:51:45.562Z,13.83
2019-02-23T17:54:16.392Z,12.40
2019-02-23T17:56:47.034Z,11.83
2019-02-23T17:59:17.885Z,12.27
2019-02-23T18:01:48.523Z,12.17
2019-02-23T18:04:19.242Z,11.87
2019-02-23T18:06:49.953Z,12.17
2019-02-23T18:09:21.672Z,12.10
2019-02-23T18:11:52.364Z,11.47
2019-02-23T18:14:23.603Z,12.07
2019-02-23T18:16:54.535Z,11.73
2019-02-23T18:19:25.351Z,11.83
2019-02-23T18:21:56.040Z,11.37
2019-02-23T18:24:26.681Z,10.77
2019-02-23T18:26:57.780Z,11.67
2019-02-23T18:29:28.764Z,12.23
2019-02-23T18:31:59.703Z,11.93
2019-02-23T18:34:32.140Z,12.50
2019-02-23T18:37:04.546Z,11.87
2019-02-23T18:39:35.441Z,13.00
2019-02-23T18:42:07.224Z,12.03
2019-02-23T18:44:39.206Z,12.60
2019-02-23T18:47:11.493Z,12.47
2019-02-23T18:49:42.474Z,13.83
2019-02-23T18:52:14.871Z,13.40
2019-02-23T18:54:45.642Z,14.67
2019-02-23T18:57:16.845Z,12.27
2019-02-23T18:59:48.794Z,12.87
2019-02-23T19:02:19.521Z,12.83
2019-02-23T19:04:50.152Z,14.70
2019-02-23T19:07:20.992Z,14.13
2019-02-23T19:09:51.826Z,13.83
2019-02-23T19:12:36.932Z,15.17
2019-02-23T19:15:17.307Z,13.80
2019-02-23T19:17:49.820Z,17.62
2019-02-23T19:20:20.623Z,14.23
2019-02-23T19:22:52.418Z,14.90
2019-02-23T19:25:23.391Z,13.90
2019-02-23T19:27:54.392Z,14.07
2019-02-23T19:30:25.531Z,14.70
2019-02-23T19:33:00.403Z,14.40
2019-02-23T19:35:31.483Z,14.27
2019-02-23T19:38:02.354Z,13.77
2019-02-23T19:40:33.066Z,14.23
2019-02-23T19:43:05.625Z,14.00
2019-02-23T19:45:36.422Z,13.73
2019-02-23T19:48:10.782Z,13.70
2019-02-23T19:50:45.078Z,13.83
2019-02-23T19:53:17.103Z,13.40
2019-02-23T19:55:47.871Z,14.30
2019-02-23T19:58:18.693Z,14.50
2019-02-23T20:00:49.345Z,13.60
2019-02-23T20:03:20.243Z,14.23
2019-02-23T20:05:51.013Z,13.83
2019-02-23T20:08:21.567Z,14.60
2019-02-23T20:10:52.650Z,15.40
2019-02-23T20:13:24.195Z,14.37
2019-02-23T20:15:55.000Z,15.10
2019-02-23T20:18:25.856Z,13.97
2019-02-23T20:20:56.555Z,15.77
2019-02-23T20:23:27.241Z,15.63
2019-02-23T20:25:57.854Z,14.93
2019-02-23T20:28:28.815Z,14.90
2019-02-23T20:30:59.754Z,15.37
2019-02-23T20:33:30.705Z,14.93
2019-02-23T20:36:02.333Z,14.63
2019-02-23T20:38:33.159Z,15.10
2019-02-23T20:41:04.023Z,14.00
2019-02-23T20:43:34.879Z,15.13
2019-02-23T20:46:06.151Z,15.00
2019-02-23T20:48:37.015Z,15.17
2019-02-23T20:51:07.901Z,15.03
2019-02-23T20:53:38.702Z,16.17
2019-02-23T20:56:09.474Z,15.57
2019-02-23T20:58:40.214Z,14.77
2019-02-23T21:01:11.000Z,14.67
2019-02-23T21:03:41.837Z,16.57
2019-02-23T21:06:12.571Z,15.63
2019-02-23T21:08:43.355Z,16.53
2019-02-23T21:11:14.110Z,16.53
2019-02-23T21:13:45.931Z,16.30
2019-02-23T21:16:16.416Z,16.30
2019-02-23T21:18:47.170Z,16.87
2019-02-23T21:21:18.725Z,16.43
2019-02-23T21:23:49.370Z,18.50
2019-02-23T21:26:20.090Z,16.83
2019-02-23T21:28:57.743Z,17.03
2019-02-23T21:31:28.399Z,17.43
2019-02-23T21:34:18.065Z,16.93
2019-02-23T21:36:48.543Z,16.17
2019-02-23T21:39:19.938Z,17.80
2019-02-23T21:41:50.407Z,22.62
2019-02-23T21:44:20.996Z,18.60
2019-02-23T21:46:51.810Z,17.83
2019-02-23T21:49:22.267Z,16.77
2019-02-23T21:51:52.925Z,16.57
2019-02-23T21:54:23.528Z,16.53
2019-02-23T21:56:54.145Z,17.43
2019-02-23T21:59:24.681Z,16.77
2019-02-23T22:01:55.233Z,17.63
2019-02-23T22:04:25.774Z,17.53
2019-02-23T22:06:56.386Z,16.93
2019-02-23T22:09:26.933Z,17.50
2019-02-23T22:11:57.655Z,17.13
2019-02-23T22:14:28.229Z,15.67
2019-02-23T22:16:59.143Z,15.40
2019-02-23T22:19:29.712Z,18.40
2019-02-23T22:22:00.325Z,15.93
2019-02-23T22:24:30.925Z,15.20
2019-02-23T22:27:02.411Z,15.97
2019-02-23T22:29:32.937Z,15.33
2019-02-23T22:32:03.526Z,15.27
2019-02-23T22:34:35.090Z,15.17
2019-02-23T22:37:05.724Z,15.33
2019-02-23T22:39:37.058Z,15.10
2019-02-23T22:42:07.509Z,14.37
2019-02-23T22:44:38.138Z,14.33
2019-02-23T22:47:08.654Z,14.80
2019-02-23T22:49:39.152Z,14.87
2019-02-23T22:52:09.708Z,14.67
2019-02-23T22:54:40.227Z,16.03
2019-02-23T22:57:10.881Z,15.17
2019-02-23T22:59:41.404Z,14.80
2019-02-23T23:02:12.212Z,14.17
2019-02-23T23:04:43.646Z,16.50
2019-02-23T23:07:14.129Z,15.97
2019-02-23T23:09:44.599Z,14.43
2019-02-23T23:12:16.280Z,13.17
2019-02-23T23:14:46.760Z,14.67
2019-02-23T23:17:17.135Z,15.17
2019-02-23T23:19:47.672Z,16.53
2019-02-23T23:22:18.326Z,16.70
2019-02-23T23:24:48.856Z,17.53
2019-02-23T23:27:19.312Z,16.67
2019-02-23T23:29:50.101Z,15.07
2019-02-23T23:32:20.635Z,17.10
2019-02-23T23:34:51.264Z,15.93
2019-02-23T23:37:21.994Z,12.43
2019-02-23T23:39:52.914Z,13.83
2019-02-23T23:42:23.566Z,16.00
2019-02-23T23:44:54.210Z,15.07
2019-02-23T23:47:24.736Z,14.17
2019-02-23T23:49:55.233Z,14.67
2019-02-23T23:52:25.863Z,15.10
2019-02-23T23:54:56.367Z,13.97
2019-02-23T23:57:26.808Z,14.53
2019-02-23T23:59:57.296Z,15.03
